Loxahatchee, FL (33470)

2:47 AM EST on February 09, 2016 (GMT -0500)
Loxahatchee Groves | | Change Station
CLOSE
Current Station
Personal Weather Station
Location: Loxahatchee, FL
Elevation: 49 ft
Nearby Weather Stations

Elev 49 ft 26.71 °N, 80.28 °W | Updated 16 seconds ago

Partly Cloudy
Partly Cloudy
61.9 °F
Feels Like 61.9 °F
N
0.2
Wind Variable Wind from WSW
Gusts 2.5 mph

Today
High -- | Low -- °F
--% Chance of Precip.
Yesterday
High -- | Low -- °F
Precip. -- in
Pressure 29.94 in
Visibility 10.0 miles
Clouds Scattered Clouds 3700 ft
Scattered Clouds 6000 ft
Scattered Clouds 25000 ft
Dew Point 59 °F
Humidity 90%
Rainfall 0.00 in
Snow Depth Not available.
7:02 AM 6:09 PM
New Moon, 1% visible
METAR KPBI 090653Z 22009KT 10SM SCT037 SCT060 SCT250 16/13 A2994 RMK AO2 SLP138 T01610128
Pressure 29.94 in
Visibility 10.0 miles
Clouds Scattered Clouds 3700 ft
Scattered Clouds 6000 ft
Scattered Clouds 25000 ft
Dew Point 59 °F
Humidity 90%
Rainfall 0.00 in
Snow Depth Not available.
7:02 AM 6:09 PM
New Moon, 1% visible
METAR KPBI 090653Z 22009KT 10SM SCT037 SCT060 SCT250 16/13 A2994 RMK AO2 SLP138 T01610128

10-Day Weather Forecast

Almanac

Astronomy

Feb. 09, 2016 Rise Set
Actual Time
Civil Twilight
Nautical Twilight
Astronomical Twilight
Moon
Length of Visible Light
Length of Day
Tomorrow will be .
, % of the Moon is Illuminated

Today's Extremes

State Highs State Lows

Community

WunderPhotos

Upload Photos

1,891,571 photos uploaded!

WunderBlog® & News

Nearby

Air Quality

  Air Quality AQ Index Pollutant
Not available.

Snow Depth

Station Depth Elevation

Earthquake Activity

City Distance Mag. Time & Date
Minimum magnitude displayed is 2.5.

Coastal Water Temperatures

Place Temperature

Stations

Nearby Weather Stations

Station Location Temp. Windchill Dew Point Humidity Wind Precip. Elev Updated Type
                   

Watches & Warnings

There are currently no watches in effect.